createdAt,value
2023-01-27T00:01:07.149Z,-1.18
2023-01-27T00:03:35.084Z,-1.18
2023-01-27T00:06:04.788Z,-1.17
2023-01-27T00:08:32.906Z,-1.16
2023-01-27T00:11:20.367Z,-1.16
2023-01-27T00:13:48.590Z,-1.14
2023-01-27T00:16:16.670Z,-1.16
2023-01-27T00:18:44.945Z,-1.16
2023-01-27T00:21:31.577Z,-1.15
2023-01-27T00:24:18.105Z,-1.15
2023-01-27T00:26:46.383Z,-1.16
2023-01-27T00:29:14.209Z,-1.18
2023-01-27T00:32:00.657Z,-1.20
2023-01-27T00:34:28.463Z,-1.22
2023-01-27T00:36:56.390Z,-1.23
2023-01-27T00:39:24.171Z,-1.24
2023-01-27T00:41:52.091Z,-1.25
2023-01-27T00:44:19.923Z,-1.26
2023-01-27T00:46:47.804Z,-1.26
2023-01-27T00:49:16.359Z,-1.27
2023-01-27T00:51:44.774Z,-1.27
2023-01-27T00:54:14.390Z,-1.26
2023-01-27T00:56:42.365Z,-1.25
2023-01-27T00:59:10.667Z,-1.26
2023-01-27T01:01:39.629Z,-1.26
2023-01-27T01:04:07.594Z,-1.26
2023-01-27T01:06:35.582Z,-1.27
2023-01-27T01:09:04.214Z,-1.27
2023-01-27T01:11:32.645Z,-1.27
2023-01-27T01:14:00.536Z,-1.26
2023-01-27T01:16:28.620Z,-1.26
2023-01-27T01:18:58.166Z,-1.27
2023-01-27T01:21:26.035Z,-1.27
2023-01-27T01:23:53.857Z,-1.27
2023-01-27T01:26:22.736Z,-1.27
2023-01-27T01:28:50.640Z,-1.29
2023-01-27T01:31:20.050Z,-1.28
2023-01-27T01:33:49.076Z,-1.31
2023-01-27T01:36:21.846Z,-1.33
2023-01-27T01:38:54.314Z,-1.32
2023-01-27T01:41:22.696Z,-1.32
2023-01-27T01:43:51.500Z,-1.33
2023-01-27T01:46:20.258Z,-1.34
2023-01-27T01:49:01.731Z,-1.33
2023-01-27T01:51:44.567Z,-1.35
2023-01-27T01:54:17.798Z,-1.34
2023-01-27T01:57:00.610Z,-1.32
2023-01-27T01:59:55.195Z,-1.30
2023-01-27T02:02:26.333Z,-1.29
2023-01-27T02:05:03.728Z,-1.29
2023-01-27T02:07:44.886Z,-1.28
2023-01-27T02:10:13.243Z,-1.27
2023-01-27T02:12:41.344Z,-1.26
2023-01-27T02:15:11.075Z,-1.24
2023-01-27T02:17:39.109Z,-1.23
2023-01-27T02:20:28.950Z,-1.23
2023-01-27T02:23:11.735Z,-1.25
2023-01-27T02:25:45.730Z,-1.28
2023-01-27T02:28:13.625Z,-1.29
2023-01-27T02:30:41.904Z,-1.32
2023-01-27T02:36:16.524Z,-1.35
2023-01-27T02:38:53.792Z,-1.35
2023-01-27T02:41:28.420Z,-1.36
2023-01-27T02:43:56.828Z,-1.38
2023-01-27T02:46:24.736Z,-1.42
2023-01-27T02:48:52.683Z,-1.44
2023-01-27T02:51:20.909Z,-1.44
2023-01-27T02:53:48.913Z,-1.43
2023-01-27T02:56:16.797Z,-1.44
2023-01-27T02:58:45.296Z,-1.44
2023-01-27T03:01:16.898Z,-1.43
2023-01-27T03:03:47.081Z,-1.42
2023-01-27T03:06:20.025Z,-1.40
2023-01-27T03:08:48.047Z,-1.38
2023-01-27T03:11:39.755Z,-1.35
2023-01-27T03:14:08.694Z,-1.31
2023-01-27T03:16:55.844Z,-1.32
2023-01-27T03:19:23.776Z,-1.30
2023-01-27T03:21:53.221Z,-1.26
2023-01-27T03:24:22.407Z,-1.23
2023-01-27T03:26:50.484Z,-1.19
2023-01-27T03:29:38.551Z,-1.18
2023-01-27T03:32:06.973Z,-1.14
2023-01-27T03:34:35.862Z,-1.14
2023-01-27T03:37:31.831Z,-1.13
2023-01-27T03:40:18.280Z,-1.13
2023-01-27T03:43:05.132Z,-1.13
2023-01-27T03:45:51.649Z,-1.13
2023-01-27T03:48:21.018Z,-1.15
2023-01-27T03:50:53.234Z,-1.16
2023-01-27T03:53:21.163Z,-1.15
2023-01-27T03:55:49.065Z,-1.14
2023-01-27T03:58:23.240Z,-1.14
2023-01-27T04:05:43.193Z,-1.16
2023-01-27T04:08:11.087Z,-1.18
2023-01-27T04:10:39.559Z,-1.21
2023-01-27T04:13:07.478Z,-1.25
2023-01-27T04:15:35.330Z,-1.23
2023-01-27T04:18:03.259Z,-1.22
2023-01-27T04:20:31.400Z,-1.22
2023-01-27T04:22:59.310Z,-1.22
2023-01-27T04:25:27.161Z,-1.26
2023-01-27T04:27:55.040Z,-1.27
2023-01-27T04:34:39.015Z,-1.34
2023-01-27T04:37:08.828Z,-1.38
2023-01-27T04:39:36.940Z,-1.39
2023-01-27T04:42:05.080Z,-1.42
2023-01-27T04:44:33.170Z,-1.44
2023-01-27T04:47:01.174Z,-1.45
2023-01-27T04:49:29.265Z,-1.47
2023-01-27T04:51:57.164Z,-1.49
2023-01-27T04:54:25.024Z,-1.46
2023-01-27T04:56:59.362Z,-1.42
2023-01-27T04:59:27.511Z,-1.39
2023-01-27T05:01:56.173Z,-1.36
2023-01-27T05:04:26.319Z,-1.33
2023-01-27T05:06:54.679Z,-1.31
2023-01-27T05:09:22.798Z,-1.30
2023-01-27T05:11:51.061Z,-1.32
2023-01-27T05:14:19.616Z,-1.36
2023-01-27T05:16:47.839Z,-1.39
2023-01-27T05:19:15.752Z,-1.42
2023-01-27T05:21:44.476Z,-1.44
2023-01-27T05:24:12.506Z,-1.43
2023-01-27T05:26:41.067Z,-1.43
2023-01-27T05:29:09.777Z,-1.45
2023-01-27T05:31:37.868Z,-1.45
2023-01-27T05:34:05.897Z,-1.47
2023-01-27T05:36:34.067Z,-1.46
2023-01-27T05:39:02.139Z,-1.44
2023-01-27T05:41:33.631Z,-1.44
2023-01-27T05:44:02.249Z,-1.45
2023-01-27T05:46:32.187Z,-1.44
2023-01-27T05:49:02.284Z,-1.45
2023-01-27T05:51:33.795Z,-1.48
2023-01-27T05:54:02.091Z,-1.53
2023-01-27T05:56:30.172Z,-1.57
2023-01-27T05:58:59.129Z,-1.57
2023-01-27T06:01:29.696Z,-1.58
2023-01-27T06:03:58.624Z,-1.61
2023-01-27T06:06:28.644Z,-1.61
2023-01-27T06:08:56.886Z,-1.58
2023-01-27T06:11:25.608Z,-1.57
2023-01-27T06:13:54.455Z,-1.57
2023-01-27T06:16:24.115Z,-1.59
2023-01-27T06:18:52.476Z,-1.61
2023-01-27T06:21:20.924Z,-1.63
2023-01-27T06:23:49.644Z,-1.64
2023-01-27T06:26:19.458Z,-1.64
2023-01-27T06:28:47.934Z,-1.62
2023-01-27T06:31:19.203Z,-1.60
2023-01-27T06:33:48.055Z,-1.56
2023-01-27T06:36:18.280Z,-1.54
2023-01-27T06:38:46.441Z,-1.52
2023-01-27T06:41:15.000Z,-1.50
2023-01-27T06:43:42.984Z,-1.48
2023-01-27T06:46:11.164Z,-1.48
2023-01-27T06:48:39.724Z,-1.46
2023-01-27T06:51:07.904Z,-1.42
2023-01-27T06:53:37.518Z,-1.40
2023-01-27T06:56:06.067Z,-1.40
2023-01-27T06:58:34.130Z,-1.39
2023-01-27T07:01:04.921Z,-1.40
2023-01-27T07:06:00.989Z,-1.44
2023-01-27T07:08:29.200Z,-1.45
2023-01-27T07:10:57.379Z,-1.43
2023-01-27T07:13:25.377Z,-1.41
2023-01-27T07:15:56.620Z,-1.42
2023-01-27T07:18:24.792Z,-1.41
2023-01-27T07:20:52.840Z,-1.40
2023-01-27T07:23:20.910Z,-1.38
2023-01-27T07:25:48.923Z,-1.37
2023-01-27T07:28:16.917Z,-1.34
2023-01-27T07:30:44.903Z,-1.29
2023-01-27T07:33:15.450Z,-1.22
2023-01-27T07:35:43.718Z,-1.14
2023-01-27T07:38:11.689Z,-1.00
2023-01-27T07:40:40.253Z,-0.87
2023-01-27T07:43:08.461Z,-0.85
2023-01-27T07:45:36.866Z,-0.85
2023-01-27T07:48:07.825Z,-0.82
2023-01-27T07:50:36.594Z,-0.84
2023-01-27T07:53:05.500Z,-0.80
2023-01-27T07:55:34.262Z,-0.66
2023-01-27T07:58:02.412Z,-0.49
2023-01-27T08:00:30.642Z,-0.43
2023-01-27T08:03:01.108Z,-0.35
2023-01-27T08:05:32.108Z,-0.35
2023-01-27T08:08:03.898Z,-0.29
2023-01-27T08:10:32.018Z,-0.12
2023-01-27T08:12:59.998Z,0.13
2023-01-27T08:15:27.947Z,0.36
2023-01-27T08:17:57.404Z,0.42
2023-01-27T08:20:27.441Z,0.52
2023-01-27T08:22:55.869Z,0.68
2023-01-27T08:25:24.097Z,0.80
2023-01-27T08:27:53.278Z,0.93
2023-01-27T08:30:21.899Z,0.99
2023-01-27T08:32:49.957Z,1.09
2023-01-27T08:35:18.411Z,1.24
2023-01-27T08:37:49.307Z,1.31
2023-01-27T08:40:17.999Z,1.47
2023-01-27T08:42:46.083Z,1.49
2023-01-27T08:45:14.174Z,1.47
2023-01-27T08:47:42.087Z,1.53
2023-01-27T08:50:11.193Z,1.60
2023-01-27T08:52:39.652Z,1.55
2023-01-27T08:55:07.927Z,1.61
2023-01-27T08:57:37.055Z,1.71
2023-01-27T09:00:07.145Z,1.61
2023-01-27T09:02:38.344Z,1.55
2023-01-27T09:05:07.043Z,1.67
2023-01-27T09:07:34.989Z,1.68
2023-01-27T09:10:14.070Z,1.64
2023-01-27T09:12:44.996Z,1.65
2023-01-27T09:15:14.545Z,1.78
2023-01-27T09:17:42.649Z,1.99
2023-01-27T09:20:12.376Z,2.02
2023-01-27T09:22:41.754Z,2.03
2023-01-27T09:25:14.516Z,1.92
2023-01-27T09:27:42.792Z,1.88
2023-01-27T09:30:13.627Z,2.05
2023-01-27T09:32:42.588Z,2.18
2023-01-27T09:35:11.860Z,2.11
2023-01-27T09:37:56.717Z,1.88
2023-01-27T09:41:02.755Z,1.73
2023-01-27T09:43:50.117Z,1.49
2023-01-27T09:46:41.820Z,1.43
2023-01-27T09:49:35.079Z,1.61
2023-01-27T09:52:20.335Z,1.60
2023-01-27T09:54:54.059Z,1.81
2023-01-27T09:57:31.114Z,1.79
2023-01-27T10:00:10.130Z,1.57
2023-01-27T10:03:38.588Z,1.57
2023-01-27T10:06:09.283Z,1.65
2023-01-27T10:09:00.915Z,1.84
2023-01-27T10:11:41.051Z,2.11
2023-01-27T10:14:41.639Z,2.45
2023-01-27T10:17:44.246Z,2.77
2023-01-27T10:20:18.856Z,3.04
2023-01-27T10:23:06.313Z,3.28
2023-01-27T10:25:40.537Z,3.43
2023-01-27T10:28:17.342Z,3.55
2023-01-27T10:31:12.561Z,3.64
2023-01-27T10:33:43.275Z,3.85
2023-01-27T10:36:55.940Z,3.98
2023-01-27T10:39:26.816Z,3.59
2023-01-27T10:42:33.983Z,3.67
2023-01-27T10:45:24.234Z,3.94
2023-01-27T10:48:00.122Z,4.19
2023-01-27T10:50:34.600Z,4.35
2023-01-27T10:53:20.087Z,4.32
2023-01-27T10:56:24.599Z,4.33
2023-01-27T10:59:11.264Z,4.25
2023-01-27T11:04:47.866Z,3.17
2023-01-27T11:07:19.469Z,2.87
2023-01-27T11:09:57.786Z,2.70
2023-01-27T11:12:31.743Z,2.55
2023-01-27T11:15:02.499Z,2.29
2023-01-27T11:17:37.148Z,2.06
2023-01-27T11:20:29.679Z,1.94
2023-01-27T11:23:06.402Z,1.93
2023-01-27T11:25:56.947Z,1.90
2023-01-27T11:28:47.098Z,1.92
2023-01-27T11:31:51.492Z,1.80
2023-01-27T11:34:50.160Z,1.62
2023-01-27T11:37:25.502Z,1.45
2023-01-27T11:39:53.319Z,1.42
2023-01-27T11:42:22.861Z,1.47
2023-01-27T11:44:56.125Z,1.37
2023-01-27T11:47:35.042Z,1.32
2023-01-27T11:50:04.570Z,1.38
2023-01-27T11:52:32.750Z,1.51
2023-01-27T11:55:17.489Z,1.54
2023-01-27T11:57:51.261Z,1.51
2023-01-27T12:00:28.544Z,1.55
2023-01-27T12:03:38.114Z,1.59
2023-01-27T12:06:14.848Z,1.48
2023-01-27T12:08:46.229Z,1.45
2023-01-27T12:11:31.594Z,1.28
2023-01-27T12:14:01.915Z,1.27
2023-01-27T12:16:42.548Z,1.32
2023-01-27T12:19:32.068Z,1.28
2023-01-27T12:22:03.062Z,1.20
2023-01-27T12:24:34.937Z,1.11
2023-01-27T12:27:05.348Z,1.02
2023-01-27T12:29:51.233Z,1.01
2023-01-27T12:32:37.577Z,1.09
2023-01-27T12:35:07.452Z,1.18
2023-01-27T12:37:45.275Z,1.17
2023-01-27T12:40:20.163Z,1.16
2023-01-27T12:43:09.979Z,1.12
2023-01-27T12:45:41.152Z,1.13
2023-01-27T12:48:08.811Z,1.17
2023-01-27T12:50:40.103Z,1.20
2023-01-27T12:53:17.737Z,1.25
2023-01-27T12:55:57.664Z,1.25
2023-01-27T12:58:43.551Z,1.17
2023-01-27T13:01:20.469Z,1.06
2023-01-27T13:04:03.121Z,1.01
2023-01-27T13:06:44.379Z,0.92
2023-01-27T13:09:35.104Z,0.85
2023-01-27T13:12:32.580Z,0.85
2023-01-27T13:15:16.109Z,0.88
2023-01-27T13:17:49.984Z,0.93
2023-01-27T13:20:30.744Z,0.87
2023-01-27T13:23:05.972Z,0.81
2023-01-27T13:25:41.433Z,0.82
2023-01-27T13:28:15.660Z,0.82
2023-01-27T13:30:52.271Z,0.84
2023-01-27T13:33:41.159Z,0.93
2023-01-27T13:36:25.055Z,0.86
2023-01-27T13:39:01.817Z,0.86
2023-01-27T13:41:42.923Z,0.89
2023-01-27T13:44:28.763Z,0.87
2023-01-27T13:47:03.287Z,0.83
2023-01-27T13:49:48.085Z,0.78
2023-01-27T13:52:16.131Z,0.76
2023-01-27T13:54:43.986Z,0.72
2023-01-27T13:57:24.471Z,0.73
2023-01-27T14:00:01.136Z,0.73
2023-01-27T14:02:59.852Z,0.64
2023-01-27T14:06:10.646Z,0.60
2023-01-27T14:08:45.585Z,0.59
2023-01-27T14:11:38.269Z,0.63
2023-01-27T14:14:23.562Z,0.65
2023-01-27T14:17:16.121Z,0.65
2023-01-27T14:20:04.591Z,0.66
2023-01-27T14:22:37.365Z,0.61
2023-01-27T14:25:24.281Z,0.58
2023-01-27T14:28:19.435Z,0.50
2023-01-27T14:31:03.203Z,0.46
2023-01-27T14:33:43.802Z,0.37
2023-01-27T14:36:27.606Z,0.31
2023-01-27T14:39:05.309Z,0.32
2023-01-27T14:41:50.011Z,0.32
2023-01-27T14:44:20.558Z,0.34
2023-01-27T14:47:04.653Z,0.39
2023-01-27T14:50:11.099Z,0.23
2023-01-27T14:52:46.197Z,0.27
2023-01-27T14:55:37.155Z,0.23
2023-01-27T14:58:11.113Z,0.19
2023-01-27T15:00:45.005Z,0.14
2023-01-27T15:03:44.183Z,0.09
2023-01-27T15:06:29.725Z,0.01
2023-01-27T15:09:18.737Z,-0.02
2023-01-27T15:12:15.410Z,-0.06
2023-01-27T15:15:03.014Z,-0.09
2023-01-27T15:18:10.049Z,-0.13
2023-01-27T15:20:48.564Z,-0.15
2023-01-27T15:23:34.924Z,-0.18
2023-01-27T15:26:06.733Z,-0.18
2023-01-27T15:28:39.991Z,-0.20
2023-01-27T15:31:17.140Z,-0.14
2023-01-27T15:33:48.391Z,-0.21
2023-01-27T15:36:32.108Z,-0.21
2023-01-27T15:39:09.212Z,-0.21
2023-01-27T15:41:58.223Z,-0.23
2023-01-27T15:44:31.712Z,-0.24
2023-01-27T15:47:23.745Z,-0.27
2023-01-27T15:50:20.543Z,-0.25
2023-01-27T15:52:49.726Z,-0.23
2023-01-27T15:55:28.043Z,-0.19
2023-01-27T15:58:07.448Z,-0.19
2023-01-27T16:00:38.473Z,-0.22
2023-01-27T16:03:20.284Z,-0.21
2023-01-27T16:05:52.253Z,-0.20
2023-01-27T16:08:20.763Z,-0.18
2023-01-27T16:10:48.823Z,-0.21
2023-01-27T16:13:26.446Z,-0.23
2023-01-27T16:16:19.386Z,-0.21
2023-01-27T16:19:24.932Z,-0.21
2023-01-27T16:22:13.093Z,-0.20
2023-01-27T16:25:15.305Z,-0.22
2023-01-27T16:28:02.293Z,-0.20
2023-01-27T16:30:36.027Z,-0.23
2023-01-27T16:33:24.861Z,-0.21
2023-01-27T16:36:18.780Z,-0.20
2023-01-27T16:38:49.260Z,-0.22
2023-01-27T16:41:29.732Z,-0.18
2023-01-27T16:44:14.165Z,-0.21
2023-01-27T16:46:47.641Z,-0.20
2023-01-27T16:49:19.692Z,-0.22
2023-01-27T16:51:58.559Z,-0.25
2023-01-27T16:54:33.541Z,-0.26
2023-01-27T16:57:04.594Z,-0.25
2023-01-27T16:59:37.093Z,-0.24
2023-01-27T17:02:22.304Z,-0.23
2023-01-27T17:05:02.996Z,-0.22
2023-01-27T17:07:32.032Z,-0.24
2023-01-27T17:10:18.959Z,-0.22
2023-01-27T17:12:52.455Z,-0.20
2023-01-27T17:15:20.704Z,-0.24
2023-01-27T17:17:49.973Z,-0.27
2023-01-27T17:20:28.294Z,-0.30
2023-01-27T17:22:56.859Z,-0.26
2023-01-27T17:25:34.688Z,-0.25
2023-01-27T17:28:10.149Z,-0.29
2023-01-27T17:30:41.872Z,-0.31
2023-01-27T17:33:21.373Z,-0.28
2023-01-27T17:35:53.214Z,-0.30
2023-01-27T17:38:37.101Z,-0.28
2023-01-27T17:41:05.057Z,-0.31
2023-01-27T17:43:44.711Z,-0.29
2023-01-27T17:46:22.125Z,-0.34
2023-01-27T17:48:56.296Z,-0.35
2023-01-27T17:51:34.603Z,-0.32
2023-01-27T17:54:13.419Z,-0.36
2023-01-27T17:56:41.340Z,-0.38
2023-01-27T17:59:28.581Z,-0.38
2023-01-27T18:02:04.402Z,-0.40
2023-01-27T18:04:39.461Z,-0.39
2023-01-27T18:07:07.394Z,-0.43
2023-01-27T18:09:35.298Z,-0.43
2023-01-27T18:12:06.780Z,-0.40
2023-01-27T18:14:35.428Z,-0.39
2023-01-27T18:17:19.489Z,-0.40
2023-01-27T18:19:53.550Z,-0.39
2023-01-27T18:22:22.388Z,-0.44
2023-01-27T18:24:53.633Z,-0.42
2023-01-27T18:27:27.904Z,-0.42
2023-01-27T18:30:00.763Z,-0.41
2023-01-27T18:32:38.897Z,-0.44
2023-01-27T18:35:29.252Z,-0.37
2023-01-27T18:37:59.994Z,-0.42
2023-01-27T18:40:29.344Z,-0.42
2023-01-27T18:42:58.063Z,-0.40
2023-01-27T18:45:27.795Z,-0.40
2023-01-27T18:47:56.478Z,-0.38
2023-01-27T18:50:26.623Z,-0.36
2023-01-27T18:52:54.863Z,-0.32
2023-01-27T18:55:27.190Z,-0.36
2023-01-27T18:57:59.911Z,-0.40
2023-01-27T19:04:35.012Z,-0.42
2023-01-27T19:07:12.310Z,-0.43
2023-01-27T19:09:40.186Z,-0.45
2023-01-27T19:12:08.300Z,-0.47
2023-01-27T19:14:36.956Z,-0.49
2023-01-27T19:17:15.484Z,-0.49
2023-01-27T19:19:43.552Z,-0.45
2023-01-27T19:22:15.289Z,-0.46
2023-01-27T19:24:46.305Z,-0.48
2023-01-27T19:27:16.531Z,-0.49
2023-01-27T19:29:44.785Z,-0.45
2023-01-27T19:32:14.659Z,-0.49
2023-01-27T19:34:43.120Z,-0.48
2023-01-27T19:37:18.289Z,-0.50
2023-01-27T19:39:47.136Z,-0.51
2023-01-27T19:42:16.315Z,-0.55
2023-01-27T19:44:44.691Z,-0.56
2023-01-27T19:47:14.236Z,-0.57
2023-01-27T19:49:42.346Z,-0.58
2023-01-27T19:52:10.432Z,-0.60
2023-01-27T19:54:38.447Z,-0.58
2023-01-27T19:57:15.594Z,-0.59
2023-01-27T19:59:45.840Z,-0.60
2023-01-27T20:02:14.148Z,-0.57
2023-01-27T20:04:42.216Z,-0.58
2023-01-27T20:07:12.633Z,-0.52
2023-01-27T20:09:40.781Z,-0.55
2023-01-27T20:12:17.628Z,-0.55
2023-01-27T20:14:47.842Z,-0.55
2023-01-27T20:17:15.895Z,-0.52
2023-01-27T20:19:44.488Z,-0.55
2023-01-27T20:22:12.716Z,-0.56
2023-01-27T20:24:40.718Z,-0.52
2023-01-27T20:27:09.893Z,-0.55
2023-01-27T20:29:39.684Z,-0.55
2023-01-27T20:32:09.662Z,-0.57
2023-01-27T20:35:27.761Z,-0.57
2023-01-27T20:37:56.118Z,-0.56
2023-01-27T20:40:27.556Z,-0.56
2023-01-27T20:42:56.579Z,-0.56
2023-01-27T20:45:24.795Z,-0.55
2023-01-27T20:47:54.158Z,-0.56
2023-01-27T20:50:24.384Z,-0.56
2023-01-27T20:52:54.137Z,-0.57
2023-01-27T20:55:22.667Z,-0.58
2023-01-27T20:57:50.824Z,-0.56
2023-01-27T21:00:20.985Z,-0.57
2023-01-27T21:02:50.093Z,-0.60
2023-01-27T21:05:19.463Z,-0.53
2023-01-27T21:07:47.482Z,-0.60
2023-01-27T21:10:18.970Z,-0.62
2023-01-27T21:12:47.597Z,-0.62
2023-01-27T21:15:16.159Z,-0.58
2023-01-27T21:17:44.347Z,-0.64
2023-01-27T21:20:13.651Z,-0.64
2023-01-27T21:22:41.643Z,-0.65
2023-01-27T21:25:09.738Z,-0.63
2023-01-27T21:27:37.786Z,-0.63
2023-01-27T21:30:06.351Z,-0.64
2023-01-27T21:32:35.091Z,-0.68
2023-01-27T21:35:03.578Z,-0.69
2023-01-27T21:37:31.655Z,-0.66
2023-01-27T21:39:59.583Z,-0.67
2023-01-27T21:42:46.351Z,-0.68
2023-01-27T21:45:16.506Z,-0.71
2023-01-27T21:47:44.935Z,-0.74
2023-01-27T21:50:15.039Z,-0.71
2023-01-27T21:52:45.408Z,-0.71
2023-01-27T21:55:20.134Z,-0.74
2023-01-27T21:57:50.832Z,-0.75
2023-01-27T22:00:21.403Z,-0.76
2023-01-27T22:03:07.395Z,-0.77
2023-01-27T22:05:39.044Z,-0.75
2023-01-27T22:08:07.613Z,-0.77
2023-01-27T22:10:35.599Z,-0.75
2023-01-27T22:13:04.322Z,-0.75
2023-01-27T22:15:32.878Z,-0.72
2023-01-27T22:18:01.041Z,-0.71
2023-01-27T22:20:29.155Z,-0.70
2023-01-27T22:22:57.263Z,-0.71
2023-01-27T22:25:27.373Z,-0.68
2023-01-27T22:27:56.053Z,-0.70
2023-01-27T22:30:24.370Z,-0.66
2023-01-27T22:32:52.570Z,-0.66
2023-01-27T22:35:20.775Z,-0.67
2023-01-27T22:37:49.268Z,-0.67
2023-01-27T22:40:17.798Z,-0.67
2023-01-27T22:42:49.184Z,-0.67
2023-01-27T22:45:17.511Z,-0.64
2023-01-27T22:47:46.055Z,-0.65
2023-01-27T22:50:13.943Z,-0.69
2023-01-27T22:52:41.883Z,-0.69
2023-01-27T22:55:11.293Z,-0.67
2023-01-27T22:57:39.286Z,-0.69
2023-01-27T23:00:08.537Z,-0.71
2023-01-27T23:02:36.705Z,-0.72
2023-01-27T23:05:05.167Z,-0.75
2023-01-27T23:07:33.117Z,-0.76
2023-01-27T23:10:01.215Z,-0.74
2023-01-27T23:12:29.235Z,-0.74
2023-01-27T23:14:59.574Z,-0.74
2023-01-27T23:17:27.707Z,-0.73
2023-01-27T23:19:55.672Z,-0.76
2023-01-27T23:22:23.690Z,-0.78
2023-01-27T23:27:57.544Z,-0.76
2023-01-27T23:30:25.598Z,-0.75
2023-01-27T23:32:57.383Z,-0.75
2023-01-27T23:35:25.300Z,-0.76
2023-01-27T23:37:53.161Z,-0.78
2023-01-27T23:40:21.027Z,-0.78
2023-01-27T23:42:49.675Z,-0.78
2023-01-27T23:45:17.833Z,-0.81
2023-01-27T23:47:45.814Z,-0.80
2023-01-27T23:50:14.048Z,-0.79
2023-01-27T23:52:42.017Z,-0.80
2023-01-27T23:55:11.633Z,-0.81
2023-01-27T23:57:40.138Z,-0.82
